Time;durP1;ratioP1;P1;durP2;ratioP2;P2;SDS_P1;SDS_P2;PMS_P1;PMS_P2;Temp;Humidity;BMP_temperature;BMP_pressure;BME280_temperature;BME280_humidity;BME280_pressure;Samples;Min_cycle;Max_cycle;Signal;HPM_P1;HPM_P2
2021/01/12 00:02:32;;;;;;;31.35;13.88;;;-4.40;95.20;;;;;;6190307;23;20008;-83
2021/01/12 00:04:57;;;;;;;33.70;14.63;;;-4.40;95.50;;;;;;6191250;23;20019;-82
2021/01/12 00:07:24;;;;;;;29.88;13.90;;;-4.40;95.40;;;;;;6191965;23;20009;-82
2021/01/12 00:09:51;;;;;;;31.70;13.27;;;-4.40;95.20;;;;;;6216883;23;20004;-82
2021/01/12 00:12:18;;;;;;;33.25;15.48;;;-4.40;95.20;;;;;;6191516;23;20000;-83
2021/01/12 00:14:44;;;;;;;33.83;15.13;;;-4.40;94.80;;;;;;6190567;23;20004;-82
2021/01/12 00:17:10;;;;;;;32.03;13.95;;;-4.40;94.80;;;;;;6190391;23;20004;-83
2021/01/12 00:19:37;;;;;;;31.38;15.18;;;-4.40;94.80;;;;;;6219946;23;20397;-83
2021/01/12 00:22:07;;;;;;;29.83;13.60;;;-4.40;94.80;;;;;;6216825;23;20005;-83
2021/01/12 00:24:37;;;;;;;37.42;14.65;;;-4.40;94.80;;;;;;6192079;23;20020;-82
2021/01/12 00:27:02;;;;;;;28.17;12.93;;;-4.40;94.70;;;;;;6219456;23;20007;-82
2021/01/12 00:29:28;;;;;;;34.92;14.88;;;-4.30;94.70;;;;;;6217745;23;20005;-82
2021/01/12 00:31:54;;;;;;;27.65;13.90;;;-4.30;94.60;;;;;;6217868;23;20012;-83
2021/01/12 00:34:20;;;;;;;30.02;13.48;;;-4.20;94.50;;;;;;6192469;23;20503;-83
2021/01/12 00:36:50;;;;;;;26.60;13.57;;;-4.10;94.20;;;;;;6192558;23;20051;-83
2021/01/12 00:39:17;;;;;;;30.35;14.82;;;-4.10;94.10;;;;;;6216551;23;20084;-83
2021/01/12 00:41:53;;;;;;;40.13;15.68;;;-4.00;93.60;;;;;;6190941;23;20005;-83
2021/01/12 00:44:19;;;;;;;29.70;13.82;;;-4.00;93.00;;;;;;6216614;23;19996;-83
2021/01/12 00:46:45;;;;;;;34.80;14.80;;;-4.00;92.80;;;;;;6190568;23;20091;-82
2021/01/12 00:49:13;;;;;;;31.88;14.65;;;-4.00;92.50;;;;;;6191548;23;20032;-83
2021/01/12 00:51:40;;;;;;;31.33;14.43;;;-4.00;92.30;;;;;;6190861;23;20001;-82
2021/01/12 00:54:10;;;;;;;25.67;12.40;;;-3.90;92.10;;;;;;6191103;23;20335;-83
2021/01/12 00:56:37;;;;;;;28.17;13.07;;;-3.90;92.20;;;;;;6192522;23;20239;-81
2021/01/12 00:59:03;;;;;;;26.80;12.68;;;-3.90;92.20;;;;;;6218459;23;20008;-80
2021/01/12 01:01:29;;;;;;;29.98;13.93;;;-3.80;92.10;;;;;;6192231;23;20012;-80
2021/01/12 01:03:55;;;;;;;29.75;13.80;;;-3.80;91.80;;;;;;6191757;23;20016;-81
2021/01/12 01:06:21;;;;;;;28.73;14.00;;;-3.70;91.60;;;;;;6227828;23;19997;-79
2021/01/12 01:08:48;;;;;;;26.92;13.00;;;-3.70;91.50;;;;;;6234404;23;20051;-81
2021/01/12 01:11:14;;;;;;;28.10;12.82;;;-3.60;91.20;;;;;;6234236;23;19997;-80
2021/01/12 01:13:39;;;;;;;32.20;13.38;;;-3.60;90.80;;;;;;6204958;23;20005;-81
2021/01/12 01:16:05;;;;;;;27.08;13.35;;;-3.60;90.20;;;;;;6199646;23;20039;-82
2021/01/12 01:18:31;;;;;;;26.48;12.70;;;-3.50;90.10;;;;;;6192565;23;20009;-80
2021/01/12 01:20:57;;;;;;;20.83;10.90;;;-3.50;90.00;;;;;;6191444;23;20024;-81
2021/01/12 01:23:22;;;;;;;25.33;12.85;;;-3.40;89.70;;;;;;6191557;23;20009;-83
2021/01/12 01:25:49;;;;;;;22.60;11.55;;;-3.40;89.50;;;;;;6218529;23;20020;-79
2021/01/12 01:28:15;;;;;;;25.23;12.50;;;-3.40;89.10;;;;;;6218416;23;20001;-81
2021/01/12 01:30:41;;;;;;;27.00;12.63;;;-3.40;88.60;;;;;;6191161;23;20027;-81
2021/01/12 01:33:06;;;;;;;28.33;12.63;;;-3.40;88.30;;;;;;6191873;23;20013;-81
2021/01/12 01:35:33;;;;;;;25.08;11.95;;;-3.40;88.70;;;;;;6193001;23;20013;-81
2021/01/12 01:37:59;;;;;;;23.33;11.00;;;-3.30;89.00;;;;;;6193204;23;20424;-81
2021/01/12 01:40:25;;;;;;;25.92;11.65;;;-3.30;88.70;;;;;;6192697;23;20000;-81
2021/01/12 01:42:51;;;;;;;26.80;12.77;;;-3.20;88.10;;;;;;6193615;23;20051;-81
2021/01/12 01:45:17;;;;;;;23.73;12.35;;;-3.20;88.20;;;;;;6194167;23;20008;-82
2021/01/12 01:47:44;;;;;;;24.85;12.13;;;-3.20;87.70;;;;;;6193275;23;20420;-82
2021/01/12 01:50:15;;;;;;;21.30;10.93;;;-3.20;87.50;;;;;;6194310;23;20475;-82
2021/01/12 01:52:49;;;;;;;22.45;11.55;;;-3.20;86.70;;;;;;6219914;23;20539;-82
2021/01/12 01:55:15;;;;;;;27.55;12.00;;;-3.10;86.70;;;;;;6220260;23;20000;-82
2021/01/12 01:57:41;;;;;;;24.00;10.73;;;-3.00;86.20;;;;;;6196191;23;20428;-82
2021/01/12 02:00:08;;;;;;;20.40;10.57;;;-3.00;85.80;;;;;;6194759;23;20031;-81
2021/01/12 02:02:55;;;;;;;24.48;11.57;;;-3.00;86.00;;;;;;6221330;23;20004;-82
2021/01/12 02:05:28;;;;;;;21.27;10.02;;;-3.00;85.70;;;;;;6219938;23;20001;-82
2021/01/12 02:07:57;;;;;;;25.92;11.50;;;-2.90;85.90;;;;;;6193761;23;20004;-82
2021/01/12 02:10:25;;;;;;;21.10;11.10;;;-3.00;85.90;;;;;;6193388;23;20012;-81
2021/01/12 02:13:01;;;;;;;23.90;11.98;;;-2.90;85.90;;;;;;6193819;23;20020;-82
2021/01/12 02:15:28;;;;;;;23.80;11.80;;;-2.90;86.30;;;;;;6214313;23;20005;-79
2021/01/12 02:17:55;;;;;;;22.75;11.07;;;-2.80;85.40;;;;;;6206383;23;20012;-82
2021/01/12 02:20:22;;;;;;;22.17;10.85;;;-2.80;85.50;;;;;;6220982;23;20000;-81
2021/01/12 02:23:24;;;;;;;23.90;12.23;;;-2.80;85.80;;;;;;6193750;23;20009;-82
2021/01/12 02:25:52;;;;;;;19.27;10.05;;;-2.80;86.20;;;;;;6137472;23;20036;-80
2021/01/12 02:28:18;;;;;;;20.92;10.65;;;-2.80;86.10;;;;;;6204039;23;19992;-80
2021/01/12 02:30:45;;;;;;;24.00;10.98;;;-2.80;86.30;;;;;;6209409;23;20014;-80
2021/01/12 02:33:11;;;;;;;22.92;11.45;;;-2.80;86.30;;;;;;6197518;23;20008;-82
2021/01/12 02:35:40;;;;;;;19.30;9.98;;;-2.80;86.10;;;;;;6222779;23;20039;-81
2021/01/12 02:38:06;;;;;;;20.80;10.75;;;-2.80;86.30;;;;;;6195560;23;20005;-80
2021/01/12 02:40:34;;;;;;;17.52;10.18;;;-2.80;86.40;;;;;;6217412;23;20036;-81
2021/01/12 02:43:00;;;;;;;27.40;10.77;;;-2.80;86.40;;;;;;6215850;23;20099;-82
2021/01/12 02:45:26;;;;;;;21.30;10.05;;;-2.80;86.30;;;;;;6192077;23;20146;-80
2021/01/12 02:47:52;;;;;;;24.45;10.88;;;-2.80;86.40;;;;;;6195551;23;20004;-82
2021/01/12 02:50:17;;;;;;;23.63;10.32;;;-2.80;86.00;;;;;;6219537;23;20068;-82
2021/01/12 02:52:44;;;;;;;21.63;9.50;;;;;;;;;;6193516;23;20020;-81
2021/01/12 02:55:11;;;;;;;24.35;11.48;;;-2.70;94.50;;;;;;6220134;23;20000;-82
2021/01/12 02:57:36;;;;;;;23.30;10.45;;;-2.80;86.10;;;;;;6221542;23;20495;-82
2021/01/12 03:00:07;;;;;;;22.77;11.63;;;-2.80;86.20;;;;;;6195279;23;20027;-81
2021/01/12 03:02:33;;;;;;;20.13;9.82;;;-2.80;86.00;;;;;;6195666;23;20041;-82
2021/01/12 03:04:59;;;;;;;20.83;9.93;;;-2.90;86.20;;;;;;6195140;23;20589;-82
2021/01/12 03:07:25;;;;;;;20.00;8.57;;;-2.80;86.70;;;;;;6196053;23;20562;-82
2021/01/12 03:09:51;;;;;;;23.50;11.10;;;-2.90;86.80;;;;;;6221979;23;20438;-80
2021/01/12 03:12:16;;;;;;;21.63;11.32;;;-2.80;86.70;;;;;;6194987;23;20397;-82
2021/01/12 03:14:42;;;;;;;20.40;10.18;;;-2.80;86.30;;;;;;6195607;23;20009;-82
2021/01/12 03:17:12;;;;;;;22.80;10.05;;;-2.80;86.20;;;;;;6221528;23;20387;-81
2021/01/12 03:19:37;;;;;;;22.63;11.00;;;-2.80;86.00;;;;;;6192838;23;20009;-82
2021/01/12 03:22:04;;;;;;;21.33;11.30;;;-2.70;85.40;;;;;;6220507;23;20013;-82
2021/01/12 03:24:30;;;;;;;19.27;11.25;;;-2.70;85.00;;;;;;6191814;23;20539;-82
2021/01/12 03:26:55;;;;;;;31.58;11.50;;;-2.60;84.20;;;;;;6192172;23;20008;-82
2021/01/12 03:29:21;;;;;;;22.05;10.95;;;-2.60;83.90;;;;;;6193331;23;20429;-82
2021/01/12 03:44:43;;;;;;;21.30;11.07;;;-2.20;93.30;;;;;;6220369;22;20016;-82
2021/01/12 03:47:10;;;;;;;23.48;11.68;;;-2.10;91.90;;;;;;6194692;23;20091;-83
2021/01/12 03:49:36;;;;;;;20.73;10.88;;;-2.10;90.90;;;;;;6220569;23;20020;-82
2021/01/12 03:52:02;;;;;;;21.95;10.00;;;-2.10;90.80;;;;;;6220440;23;20070;-82
2021/01/12 03:54:28;;;;;;;26.67;12.80;;;-2.00;90.90;;;;;;6193986;23;20011;-82
2021/01/12 03:56:53;;;;;;;25.05;13.00;;;-2.10;90.80;;;;;;6221224;23;20001;-82
2021/01/12 03:59:19;;;;;;;21.20;11.93;;;-2.10;90.60;;;;;;6218558;23;20012;-82
2021/01/12 04:01:45;;;;;;;25.08;11.73;;;-2.10;90.50;;;;;;6195911;23;20098;-82
2021/01/12 04:04:11;;;;;;;22.08;11.35;;;-2.10;90.50;;;;;;6229580;23;20060;-82
2021/01/12 04:06:36;;;;;;;19.85;11.73;;;-2.10;90.50;;;;;;6193754;23;20036;-82
2021/01/12 04:09:03;;;;;;;24.58;11.98;;;-2.10;90.80;;;;;;6221340;23;20008;-82
2021/01/12 04:11:34;;;;;;;23.88;12.00;;;-2.10;90.70;;;;;;6194590;23;19997;-82
2021/01/12 04:14:03;;;;;;;23.90;11.95;;;-2.00;90.80;;;;;;6193352;23;19997;-82
2021/01/12 04:16:28;;;;;;;26.42;11.43;;;-2.10;79.20;;;;;;6195017;23;20055;-82
2021/01/12 04:18:54;;;;;;;22.58;11.98;;;-2.10;78.90;;;;;;6222372;23;20087;-82
2021/01/12 04:21:20;;;;;;;23.38;11.88;;;-2.00;93.10;;;;;;6223756;23;20008;-83
2021/01/12 04:23:45;;;;;;;21.15;11.20;;;-2.00;84.60;;;;;;6195971;23;20008;-83
2021/01/12 04:26:11;;;;;;;24.17;11.40;;;-1.90;84.80;;;;;;6193032;23;20009;-83
2021/01/12 04:28:37;;;;;;;16.48;9.90;;;-2.00;84.80;;;;;;6220200;23;20013;-83
2021/01/12 04:31:02;;;;;;;25.52;11.73;;;-2.00;80.00;;;;;;6192690;23;20433;-82
2021/01/12 04:33:28;;;;;;;21.85;11.52;;;-2.00;78.00;;;;;;6192042;23;20000;-82
2021/01/12 04:35:54;;;;;;;22.23;11.57;;;-2.00;77.60;;;;;;6193252;23;20467;-82
2021/01/12 04:38:19;;;;;;;22.92;10.65;;;-2.00;80.20;;;;;;6220557;23;20001;-82
2021/01/12 04:40:45;;;;;;;19.77;10.07;;;-2.00;77.70;;;;;;6219692;23;20607;-82
2021/01/12 04:43:11;;;;;;;22.00;10.77;;;-2.00;78.20;;;;;;6192770;23;20014;-83
2021/01/12 04:45:37;;;;;;;19.67;9.50;;;-2.00;77.50;;;;;;6219572;23;20083;-82
2021/01/12 04:48:04;;;;;;;17.75;9.10;;;-2.00;77.70;;;;;;6220663;23;19996;-82
2021/01/12 04:50:30;;;;;;;25.67;11.80;;;-1.90;77.90;;;;;;6193316;23;20015;-82
2021/01/12 04:52:55;;;;;;;19.80;10.20;;;-1.90;78.10;;;;;;6219303;23;20329;-82
2021/01/12 04:55:21;;;;;;;18.77;10.00;;;-1.80;78.00;;;;;;6220320;23;20004;-82
2021/01/12 04:57:49;;;;;;;20.25;10.40;;;-1.80;78.20;;;;;;6219846;23;20001;-83
2021/01/12 05:00:17;;;;;;;20.98;9.25;;;-1.80;78.60;;;;;;6194346;23;20027;-83
2021/01/12 05:03:04;;;;;;;18.35;10.18;;;-1.70;78.90;;;;;;6194632;23;20032;-82
2021/01/12 05:05:34;;;;;;;21.05;10.55;;;-1.60;80.80;;;;;;6194306;23;20009;-82
2021/01/12 05:08:08;;;;;;;20.40;11.25;;;-1.60;81.30;;;;;;6221836;23;20000;-82
2021/01/12 05:10:40;;;;;;;26.98;12.20;;;-1.60;81.50;;;;;;6221757;23;20055;-82
2021/01/12 05:13:08;;;;;;;23.67;12.27;;;-1.60;81.90;;;;;;6221797;23;20083;-81
2021/01/12 05:15:36;;;;;;;24.13;12.52;;;-1.60;90.50;;;;;;6194711;23;20016;-81
2021/01/12 05:18:05;;;;;;;22.27;11.48;;;-1.50;91.20;;;;;;6221629;23;20380;-81
2021/01/12 05:20:48;;;;;;;26.25;12.55;;;-1.80;79.70;;;;;;6221540;23;20333;-82
2021/01/12 05:23:19;;;;;;;19.10;10.20;;;-1.80;79.70;;;;;;6221412;23;20001;-81
2021/01/12 05:25:48;;;;;;;23.90;12.30;;;-1.90;80.00;;;;;;6221829;23;20005;-81
2021/01/12 05:28:14;;;;;;;20.17;10.35;;;-1.90;80.30;;;;;;6221785;23;20001;-81
2021/01/12 05:30:39;;;;;;;26.55;12.00;;;-1.90;80.30;;;;;;6221277;23;19997;-81
2021/01/12 05:33:05;;;;;;;20.17;11.38;;;-1.80;89.70;;;;;;6221830;23;20048;-79
2021/01/12 05:35:35;;;;;;;22.40;12.07;;;-1.80;90.40;;;;;;6228182;23;20007;-82
2021/01/12 05:38:05;;;;;;;24.38;12.00;;;-1.80;83.30;;;;;;6201226;23;20011;-83
2021/01/12 05:40:38;;;;;;;20.90;11.15;;;-1.80;82.70;;;;;;6198803;23;20021;-82
2021/01/12 05:43:12;;;;;;;19.48;11.20;;;-1.80;82.60;;;;;;6229268;23;20001;-82
2021/01/12 05:45:39;;;;;;;21.40;10.73;;;-1.80;83.40;;;;;;6198823;23;20032;-81
2021/01/12 05:48:06;;;;;;;25.67;11.98;;;-1.80;83.50;;;;;;6224512;23;20007;-84
2021/01/12 05:50:32;;;;;;;21.27;11.05;;;-2.00;80.00;;;;;;6223986;23;20072;-82
2021/01/12 05:53:21;;;;;;;21.88;10.40;;;-2.00;80.50;;;;;;6194946;23;20336;-82
2021/01/12 05:55:53;;;;;;;21.33;10.38;;;;;;;;;;6221713;23;20031;-82
2021/01/12 05:58:30;;;;;;;20.55;10.32;;;-2.00;92.60;;;;;;6195245;23;20004;-82
2021/01/12 06:01:02;;;;;;;22.95;10.20;;;-2.00;94.00;;;;;;6220061;23;20037;-82
2021/01/12 06:03:29;;;;;;;19.75;10.02;;;-2.00;93.60;;;;;;6219704;23;20058;-82
2021/01/12 06:05:55;;;;;;;20.75;10.10;;;-1.90;93.80;;;;;;6197605;23;20005;-82
2021/01/12 06:08:21;;;;;;;22.25;9.30;;;-2.00;97.90;;;;;;6198342;23;20051;-81
2021/01/12 06:10:47;;;;;;;17.90;9.05;;;-2.10;99.00;;;;;;6223260;23;20005;-82
2021/01/12 06:13:17;;;;;;;17.35;9.13;;;-2.00;98.80;;;;;;6221895;23;19997;-81
2021/01/12 06:15:45;;;;;;;17.77;9.63;;;-2.00;99.40;;;;;;6195907;23;20011;-81
2021/01/12 06:18:21;;;;;;;22.75;9.52;;;-2.00;99.00;;;;;;6223159;23;20007;-82
2021/01/12 06:20:56;;;;;;;16.23;8.48;;;-2.10;85.40;;;;;;6222956;23;20000;-82
2021/01/12 06:23:52;;;;;;;17.27;9.18;;;-2.00;85.70;;;;;;6196430;23;20009;-82
2021/01/12 06:26:18;;;;;;;23.63;9.95;;;-1.90;86.10;;;;;;6213077;23;20005;-82
2021/01/12 06:28:44;;;;;;;19.10;8.65;;;-1.90;86.50;;;;;;6197762;23;20001;-82
2021/01/12 06:31:11;;;;;;;14.40;8.25;;;-1.80;86.70;;;;;;6208381;23;20011;-82
2021/01/12 06:33:40;;;;;;;16.23;7.97;;;-1.70;86.90;;;;;;6225712;23;20043;-82
2021/01/12 06:36:07;;;;;;;15.20;8.10;;;-1.60;87.20;;;;;;6201265;23;20135;-82
2021/01/12 06:38:39;;;;;;;14.20;8.05;;;-1.60;87.60;;;;;;6227756;23;20016;-82
2021/01/12 06:41:08;;;;;;;14.45;6.88;;;-1.40;88.60;;;;;;6243573;22;20000;-82
2021/01/12 06:43:35;;;;;;;13.02;6.32;;;-1.30;89.30;;;;;;6244195;22;19988;-82
2021/01/12 06:46:02;;;;;;;10.60;5.28;;;-1.20;90.20;;;;;;6244459;22;20001;-82
2021/01/12 06:48:28;;;;;;;12.45;6.63;;;-1.10;90.40;;;;;;6218001;23;19997;-82
2021/01/12 06:50:56;;;;;;;13.77;6.40;;;-1.00;90.40;;;;;;6244195;22;20023;-82
2021/01/12 06:53:22;;;;;;;12.98;5.70;;;-1.00;90.40;;;;;;6243831;22;20004;-82
2021/01/12 06:55:47;;;;;;;11.45;5.55;;;-1.00;90.60;;;;;;6210103;23;20061;-82
2021/01/12 06:58:13;;;;;;;9.00;4.97;;;-1.00;90.60;;;;;;6238416;22;20024;-83
2021/01/12 07:00:39;;;;;;;9.25;5.20;;;-0.90;90.60;;;;;;6212204;23;20012;-82
2021/01/12 07:03:08;;;;;;;9.43;5.38;;;-0.90;90.60;;;;;;6226721;23;20000;-83
2021/01/12 07:05:42;;;;;;;12.48;5.40;;;-0.80;90.50;;;;;;6230334;23;20010;-84
2021/01/12 07:08:12;;;;;;;11.27;5.07;;;-0.80;90.40;;;;;;6209662;23;19988;-84
2021/01/12 07:11:02;;;;;;;10.98;5.03;;;-0.80;90.40;;;;;;6244221;22;19984;-82
2021/01/12 07:13:39;;;;;;;8.30;4.63;;;-0.80;90.30;;;;;;6218592;22;19999;-82
2021/01/12 07:16:14;;;;;;;9.05;5.10;;;-0.80;90.20;;;;;;6244281;22;19993;-82
2021/01/12 07:18:43;;;;;;;8.75;4.88;;;-0.70;90.30;;;;;;6215103;22;20013;-80
2021/01/12 07:21:13;;;;;;;8.55;5.00;;;-0.70;90.30;;;;;;6243881;22;19985;-79
2021/01/12 07:23:42;;;;;;;7.85;5.22;;;-0.70;90.40;;;;;;6243848;22;20004;-81
2021/01/12 07:26:09;;;;;;;8.93;4.78;;;-0.70;90.30;;;;;;6217654;22;20004;-77
2021/01/12 07:28:45;;;;;;;9.20;5.05;;;-0.60;90.20;;;;;;6217942;22;19992;-80
2021/01/12 07:31:11;;;;;;;13.68;5.15;;;-0.60;90.00;;;;;;6217436;23;20009;-83
2021/01/12 07:33:39;;;;;;;14.00;6.97;;;-0.50;90.00;;;;;;6217291;23;19988;-82
2021/01/12 07:36:06;;;;;;;8.73;4.75;;;-0.50;89.70;;;;;;6217082;22;20012;-80
2021/01/12 07:38:35;;;;;;;9.85;5.32;;;-0.40;89.70;;;;;;6237058;22;20001;-83
2021/01/12 07:41:03;;;;;;;7.30;4.15;;;;;;;;;;6235395;22;20016;-83
2021/01/12 07:43:31;;;;;;;8.40;4.63;;;-0.30;89.30;;;;;;6241099;22;20009;-82
2021/01/12 07:45:56;;;;;;;6.85;4.00;;;-0.30;90.00;;;;;;6240487;22;20080;-81
2021/01/12 07:48:23;;;;;;;6.03;3.60;;;-0.20;90.10;;;;;;6214798;23;20012;-82
2021/01/12 07:50:50;;;;;;;8.35;4.45;;;-0.10;90.10;;;;;;6241367;23;20001;-81
2021/01/12 07:53:16;;;;;;;5.90;3.50;;;0.00;90.00;;;;;;6210036;23;20005;-82
2021/01/12 07:55:47;;;;;;;6.40;3.25;;;0.10;90.00;;;;;;6217597;23;20437;-81
2021/01/12 07:58:18;;;;;;;5.57;3.15;;;0.20;90.00;;;;;;6192272;23;20005;-83
2021/01/12 08:00:47;;;;;;;7.45;3.00;;;0.30;89.80;;;;;;6191192;23;20388;-82
2021/01/12 08:03:13;;;;;;;10.10;3.60;;;0.30;89.70;;;;;;6193243;23;20015;-83
2021/01/12 08:05:39;;;;;;;4.75;3.00;;;0.40;89.80;;;;;;6193668;23;20009;-82
2021/01/12 08:08:06;;;;;;;4.60;2.80;;;0.50;89.60;;;;;;6218040;23;20147;-82
2021/01/12 08:10:35;;;;;;;4.32;2.55;;;0.60;89.20;;;;;;6220324;23;19997;-82
2021/01/12 08:13:11;;;;;;;6.60;3.38;;;0.60;89.10;;;;;;6218829;23;20404;-82
2021/01/12 08:15:39;;;;;;;4.68;3.50;;;0.70;88.90;;;;;;6193199;23;20448;-82
2021/01/12 08:18:15;;;;;;;5.93;3.03;;;0.80;88.70;;;;;;6196133;23;20004;-83
2021/01/12 08:20:42;;;;;;;4.57;2.70;;;0.80;88.20;;;;;;6222475;23;20001;-83
2021/01/12 08:23:11;;;;;;;4.00;2.47;;;0.90;87.90;;;;;;6195820;23;20015;-83
2021/01/12 08:25:36;;;;;;;3.65;2.20;;;1.00;87.70;;;;;;6221906;23;20516;-84
2021/01/12 08:28:04;;;;;;;3.55;2.20;;;1.00;87.40;;;;;;6194353;23;20000;-83
2021/01/12 08:30:34;;;;;;;3.40;2.35;;;1.10;86.80;;;;;;6195575;23;20003;-83
2021/01/12 08:33:09;;;;;;;5.28;2.47;;;1.20;86.40;;;;;;6195010;23;20075;-84
2021/01/12 08:35:52;;;;;;;7.32;2.97;;;1.20;86.20;;;;;;6195694;23;20035;-82
2021/01/12 08:38:22;;;;;;;2.60;1.83;;;1.30;86.10;;;;;;6222489;23;20004;-82
2021/01/12 08:40:49;;;;;;;3.40;2.25;;;1.30;85.90;;;;;;6227835;23;20004;-82
2021/01/12 08:43:18;;;;;;;2.83;2.10;;;1.30;86.00;;;;;;6201022;23;20043;-83
2021/01/12 08:45:47;;;;;;;2.53;1.83;;;1.40;85.80;;;;;;6224326;23;20063;-82
2021/01/12 08:48:15;;;;;;;8.13;2.15;;;1.50;85.60;;;;;;6228197;23;19996;-83
2021/01/12 08:50:41;;;;;;;5.20;2.30;;;1.50;85.30;;;;;;6204634;23;20001;-83
2021/01/12 08:53:08;;;;;;;2.83;1.90;;;1.60;85.40;;;;;;6239949;23;20112;-83
2021/01/12 08:55:34;;;;;;;5.15;2.65;;;1.60;85.30;;;;;;6241287;22;20045;-82
2021/01/12 08:58:06;;;;;;;2.88;1.98;;;1.70;85.30;;;;;;6215980;22;19997;-82
2021/01/12 09:00:34;;;;;;;4.72;1.83;;;1.70;86.30;;;;;;6216190;23;20004;-82
2021/01/12 09:03:01;;;;;;;2.88;1.90;;;1.70;85.40;;;;;;6209951;23;20066;-83
2021/01/12 09:05:30;;;;;;;4.22;1.75;;;1.80;85.70;;;;;;6234834;22;20029;-83
2021/01/12 09:08:16;;;;;;;2.00;1.60;;;1.80;85.40;;;;;;6201852;23;20004;-83
2021/01/12 09:10:43;;;;;;;4.80;1.33;;;1.90;85.80;;;;;;6227987;23;20020;-82
2021/01/12 09:13:10;;;;;;;2.83;1.60;;;1.90;85.60;;;;;;6200483;23;20125;-83
2021/01/12 09:15:47;;;;;;;2.03;1.33;;;2.00;85.30;;;;;;6221478;23;20064;-82
2021/01/12 09:18:20;;;;;;;3.88;1.65;;;2.20;84.90;;;;;;6194351;23;20012;-83
2021/01/12 09:21:08;;;;;;;3.53;1.33;;;2.30;84.50;;;;;;6220696;23;20495;-83
2021/01/12 09:23:36;;;;;;;5.65;1.60;;;2.30;84.10;;;;;;6194000;23;20444;-83
2021/01/12 09:26:03;;;;;;;2.53;1.95;;;2.30;83.90;;;;;;6222326;23;20008;-84
2021/01/12 09:28:35;;;;;;;1.40;1.08;;;2.40;83.30;;;;;;6222017;23;20355;-82
2021/01/12 09:31:10;;;;;;;1.40;1.27;;;2.50;82.90;;;;;;6196494;23;20039;-83
2021/01/12 09:38:48;;;;;;;2.08;1.45;;;2.40;83.60;;;;;;6224806;22;20024;-81
2021/01/12 09:41:16;;;;;;;2.13;1.20;;;2.50;83.20;;;;;;6220706;23;20300;-82
2021/01/12 09:43:42;;;;;;;1.27;1.10;;;2.60;82.60;;;;;;6207406;23;20036;-83
2021/01/12 09:46:10;;;;;;;2.00;1.15;;;2.70;82.20;;;;;;6165162;23;20020;-82
2021/01/12 09:48:37;;;;;;;5.47;1.20;;;2.70;81.90;;;;;;6163843;23;20001;-80
2021/01/12 09:51:04;;;;;;;2.05;1.23;;;2.70;82.10;;;;;;6190683;23;20008;-82
2021/01/12 09:53:29;;;;;;;2.67;2.20;;;2.70;82.30;;;;;;6164391;23;20005;-81
2021/01/12 09:55:58;;;;;;;4.38;1.35;;;2.80;82.00;;;;;;6167427;23;20005;-81
2021/01/12 09:58:25;;;;;;;1.42;0.98;;;2.80;82.00;;;;;;6193294;23;20096;-82
2021/01/12 10:00:51;;;;;;;2.33;1.20;;;2.80;82.00;;;;;;6193513;23;20047;-80
2021/01/12 10:03:17;;;;;;;2.88;0.80;;;2.80;82.50;;;;;;6165315;23;20413;-80
2021/01/12 10:05:42;;;;;;;3.78;0.80;;;2.80;82.20;;;;;;6173966;23;20068;-79
2021/01/12 10:08:08;;;;;;;1.88;1.08;;;2.80;82.00;;;;;;6198166;23;20305;-81
2021/01/12 10:10:35;;;;;;;2.58;1.45;;;2.90;82.60;;;;;;6190431;23;20072;-79
2021/01/12 10:13:02;;;;;;;1.88;1.10;;;2.90;82.90;;;;;;6197757;23;20008;-78
2021/01/12 10:15:27;;;;;;;1.42;1.08;;;2.80;83.80;;;;;;6198906;23;20032;-79
2021/01/12 10:17:53;;;;;;;4.32;1.27;;;2.80;85.20;;;;;;6188865;23;19997;-81
2021/01/12 10:20:19;;;;;;;2.60;1.00;;;2.70;86.70;;;;;;6161467;23;20001;-81
2021/01/12 10:22:45;;;;;;;1.48;1.17;;;2.70;87.80;;;;;;6162869;23;19997;-82
2021/01/12 10:25:11;;;;;;;1.90;1.10;;;2.60;89.50;;;;;;6191408;23;20005;-81
2021/01/12 10:27:38;;;;;;;1.90;1.33;;;2.60;90.20;;;;;;6192319;23;20005;-82
2021/01/12 10:30:06;;;;;;;1.23;0.80;;;2.70;90.30;;;;;;6167365;23;20032;-82
2021/01/12 10:32:32;;;;;;;1.17;0.93;;;2.70;90.70;;;;;;6166002;23;20013;-80
2021/01/12 10:34:58;;;;;;;1.50;1.10;;;2.60;91.30;;;;;;6193620;23;20087;-81
2021/01/12 10:37:23;;;;;;;1.38;1.10;;;2.60;91.60;;;;;;6193758;23;20020;-82
2021/01/12 10:39:49;;;;;;;1.60;0.93;;;2.60;92.20;;;;;;6163157;23;20020;-82
2021/01/12 10:42:15;;;;;;;1.65;0.88;;;2.60;92.50;;;;;;6164105;23;20008;-82
2021/01/12 10:44:41;;;;;;;1.40;1.05;;;2.40;93.80;;;;;;6164302;23;20009;-82
2021/01/12 10:47:07;;;;;;;4.63;1.10;;;2.20;95.60;;;;;;6190183;23;20005;-81
2021/01/12 10:49:33;;;;;;;2.67;1.08;;;2.00;97.40;;;;;;6189348;23;20021;-80
2021/01/12 10:52:00;;;;;;;2.20;0.82;;;1.80;99.30;;;;;;6162492;23;20016;-81
2021/01/12 10:54:26;;;;;;;2.83;0.90;;;1.70;99.90;;;;;;6191666;23;20056;-80
2021/01/12 10:56:53;;;;;;;7.10;1.23;;;1.60;99.90;;;;;;6205209;23;20009;-81
2021/01/12 10:59:18;;;;;;;1.60;0.90;;;1.50;99.90;;;;;;6173441;23;20028;-80
2021/01/12 11:01:45;;;;;;;1.77;1.20;;;1.40;99.90;;;;;;6188875;23;20372;-82
2021/01/12 11:04:10;;;;;;;2.60;1.15;;;1.40;99.90;;;;;;6190499;23;20076;-79
2021/01/12 11:06:36;;;;;;;2.80;1.50;;;1.40;99.90;;;;;;6163850;23;20445;-80
2021/01/12 11:09:04;;;;;;;5.35;3.10;;;1.30;99.90;;;;;;6163648;23;20401;-81
2021/01/12 11:11:34;;;;;;;3.10;1.45;;;1.40;99.90;;;;;;6189969;23;20012;-82
2021/01/12 11:14:06;;;;;;;2.17;1.40;;;1.30;99.90;;;;;;6167573;23;20005;-82
2021/01/12 11:16:41;;;;;;;6.32;1.55;;;1.30;99.90;;;;;;6195771;23;20017;-81
2021/01/12 11:19:10;;;;;;;2.03;1.27;;;1.30;99.90;;;;;;6168676;23;20055;-81
2021/01/12 11:21:41;;;;;;;3.05;1.88;;;1.30;99.90;;;;;;6168499;23;20005;-82
2021/01/12 11:24:07;;;;;;;3.83;2.47;;;1.40;99.90;;;;;;6167918;23;20016;-80
2021/01/12 11:26:33;;;;;;;2.17;1.60;;;1.40;99.90;;;;;;6194154;23;20005;-80
2021/01/12 11:28:58;;;;;;;5.53;1.50;;;1.40;99.90;;;;;;6166684;23;20084;-82
2021/01/12 11:31:26;;;;;;;2.72;1.40;;;1.30;99.90;;;;;;6166528;23;20016;-81
2021/01/12 11:33:52;;;;;;;3.08;1.77;;;1.30;99.90;;;;;;6167141;23;20013;-81
2021/01/12 11:36:18;;;;;;;4.53;1.98;;;1.30;99.90;;;;;;6192590;23;20001;-81
2021/01/12 11:38:44;;;;;;;2.63;1.40;;;1.30;99.90;;;;;;6192370;23;20095;-81
2021/01/12 11:41:10;;;;;;;2.83;1.60;;;1.30;99.90;;;;;;6166694;23;20040;-79
2021/01/12 11:43:37;;;;;;;4.95;1.77;;;1.30;99.90;;;;;;6163800;23;20001;-80
2021/01/12 11:46:04;;;;;;;1.40;1.30;;;1.20;99.90;;;;;;6165291;23;20009;-78
2021/01/12 11:48:30;;;;;;;1.42;0.95;;;1.30;99.90;;;;;;6169316;23;20013;-81
2021/01/12 11:50:55;;;;;;;1.38;1.08;;;1.40;99.90;;;;;;6170370;23;20005;-81
2021/01/12 11:53:21;;;;;;;1.48;1.15;;;1.40;99.90;;;;;;6168783;23;20451;-82
2021/01/12 11:55:47;;;;;;;1.48;1.27;;;1.40;99.90;;;;;;6167497;23;20005;-82
2021/01/12 11:58:12;;;;;;;2.22;1.10;;;1.40;99.90;;;;;;6191908;23;19997;-81
2021/01/12 12:00:38;;;;;;;2.28;1.73;;;1.30;99.90;;;;;;6193765;23;20011;-80
2021/01/12 12:03:04;;;;;;;3.60;1.92;;;1.30;99.90;;;;;;6165621;23;20024;-80
2021/01/12 12:05:30;;;;;;;2.92;1.27;;;1.30;99.90;;;;;;6167564;23;20084;-81
2021/01/12 12:07:56;;;;;;;2.78;1.10;;;1.30;99.90;;;;;;6193250;23;20033;-81
2021/01/12 12:10:22;;;;;;;3.20;1.30;;;1.30;99.90;;;;;;6193988;23;20118;-79
2021/01/12 12:12:48;;;;;;;1.48;1.05;;;1.30;99.90;;;;;;6164110;23;20364;-81
2021/01/12 12:15:14;;;;;;;3.30;1.48;;;1.30;99.90;;;;;;6162194;23;20012;-79
2021/01/12 12:17:40;;;;;;;6.15;1.73;;;1.30;99.90;;;;;;6186137;23;20059;-78
2021/01/12 12:20:06;;;;;;;2.80;1.25;;;1.30;99.90;;;;;;6158929;23;20088;-79
2021/01/12 12:22:32;;;;;;;4.80;1.63;;;1.30;99.90;;;;;;6186135;23;20008;-80
2021/01/12 12:24:58;;;;;;;1.75;1.45;;;1.40;99.90;;;;;;6193560;23;20005;-81
2021/01/12 12:27:24;;;;;;;2.08;1.20;;;1.40;99.90;;;;;;6163989;23;20020;-81
2021/01/12 12:29:49;;;;;;;3.10;1.52;;;1.40;99.90;;;;;;6165382;23;20329;-81
2021/01/12 12:32:15;;;;;;;2.75;1.48;;;1.30;99.90;;;;;;6166796;23;20025;-81
2021/01/12 12:34:41;;;;;;;2.80;1.20;;;1.30;99.90;;;;;;6201870;23;20052;-81
2021/01/12 12:37:09;;;;;;;2.85;1.45;;;1.40;99.90;;;;;;6173671;23;20122;-81
2021/01/12 12:39:37;;;;;;;2.10;1.40;;;1.40;99.90;;;;;;6166159;23;20012;-81
2021/01/12 12:42:03;;;;;;;3.45;2.00;;;1.40;99.90;;;;;;6163649;23;20438;-81
2021/01/12 12:44:29;;;;;;;4.22;1.80;;;1.40;99.90;;;;;;6191558;23;19997;-80
2021/01/12 12:46:55;;;;;;;2.00;1.42;;;1.40;99.90;;;;;;6189923;23;20001;-79
2021/01/12 12:49:20;;;;;;;1.90;1.40;;;1.40;99.90;;;;;;6163995;23;20005;-80
2021/01/12 12:51:49;;;;;;;3.15;1.27;;;1.50;99.90;;;;;;6194335;23;20028;-79
2021/01/12 12:54:15;;;;;;;2.75;1.67;;;1.50;99.90;;;;;;6172680;23;20009;-78
2021/01/12 12:56:41;;;;;;;5.47;1.98;;;1.50;99.90;;;;;;6170350;23;20135;-80
2021/01/12 12:59:07;;;;;;;3.55;1.40;;;1.50;99.90;;;;;;6192323;23;20077;-80
2021/01/12 13:01:33;;;;;;;6.88;3.17;;;1.50;99.90;;;;;;6165266;23;20112;-81
2021/01/12 13:04:00;;;;;;;4.70;1.58;;;1.50;99.90;;;;;;6198224;23;19997;-78
2021/01/12 13:06:26;;;;;;;1.95;1.20;;;1.50;99.90;;;;;;6197976;23;20012;-80